createdAt,value
2022-08-09T00:01:54.687Z,2.15
2022-08-09T00:04:34.738Z,2.30
2022-08-09T00:07:03.778Z,1.95
2022-08-09T00:09:38.162Z,1.70
2022-08-09T00:12:07.850Z,2.20
2022-08-09T00:14:37.872Z,1.85
2022-08-09T00:17:06.226Z,2.00
2022-08-09T00:19:34.061Z,1.63
2022-08-09T00:22:03.465Z,1.83
2022-08-09T00:24:31.923Z,1.98
2022-08-09T00:27:00.254Z,1.60
2022-08-09T00:30:16.520Z,1.90
2022-08-09T00:32:35.767Z,1.98
2022-08-09T00:35:03.734Z,1.40
2022-08-09T00:37:32.458Z,1.70
2022-08-09T00:40:08.937Z,1.80
2022-08-09T00:44:14.738Z,1.73
2022-08-09T00:45:30.990Z,1.63
2022-08-09T00:48:03.120Z,1.90
2022-08-09T00:50:31.235Z,1.80
2022-08-09T00:52:58.872Z,2.00
2022-08-09T00:55:54.200Z,2.00
2022-08-09T00:58:14.672Z,2.00
2022-08-09T01:00:44.896Z,1.85
2022-08-09T01:03:17.762Z,1.93
2022-08-09T01:05:54.088Z,1.55
2022-08-09T01:08:30.776Z,1.80
2022-08-09T01:11:15.469Z,1.80
2022-08-09T01:13:58.987Z,1.92
2022-08-09T01:16:36.071Z,2.05
2022-08-09T01:19:16.711Z,1.85
2022-08-09T01:22:12.381Z,2.08
2022-08-09T01:24:54.967Z,2.10
2022-08-09T01:27:27.465Z,1.90
2022-08-09T01:32:34.146Z,1.92
2022-08-09T01:35:18.073Z,2.03
2022-08-09T01:38:08.311Z,2.00
2022-08-09T01:40:42.818Z,1.92
2022-08-09T01:45:46.251Z,1.73
2022-08-09T01:48:17.317Z,2.08
2022-08-09T01:50:49.014Z,1.83
2022-08-09T01:53:23.824Z,2.53
2022-08-09T01:55:57.801Z,2.30
2022-08-09T01:58:30.751Z,2.15
2022-08-09T02:01:00.159Z,2.00
2022-08-09T02:03:30.454Z,2.13
2022-08-09T02:06:06.648Z,1.73
2022-08-09T02:08:57.025Z,2.28
2022-08-09T02:11:42.842Z,1.85
2022-08-09T02:14:25.626Z,2.20
2022-08-09T02:16:59.524Z,1.90
2022-08-09T02:19:43.699Z,2.00
2022-08-09T02:22:17.775Z,2.40
2022-08-09T02:24:58.373Z,2.00
2022-08-09T02:27:57.928Z,2.03
2022-08-09T02:30:19.621Z,2.77
2022-08-09T02:32:49.498Z,2.45
2022-08-09T02:35:46.362Z,2.47
2022-08-09T02:38:11.527Z,2.10
2022-08-09T02:40:50.561Z,2.17
2022-08-09T02:43:21.330Z,2.05
2022-08-09T02:45:51.518Z,1.88
2022-08-09T02:48:30.660Z,2.30
2022-08-09T02:51:02.578Z,2.70
2022-08-09T02:53:35.444Z,2.28
2022-08-09T02:56:04.954Z,2.30
2022-08-09T02:58:37.423Z,2.15
2022-08-09T03:01:11.124Z,2.20
2022-08-09T03:04:18.134Z,2.58
2022-08-09T03:06:32.824Z,2.60
2022-08-09T03:09:02.514Z,2.17
2022-08-09T03:12:06.473Z,2.42
2022-08-09T03:14:21.784Z,2.38
2022-08-09T03:16:56.473Z,2.17
2022-08-09T03:19:58.790Z,2.05
2022-08-09T03:22:25.015Z,2.38
2022-08-09T03:25:05.978Z,3.00
2022-08-09T03:27:44.865Z,2.65
2022-08-09T03:30:14.395Z,2.42
2022-08-09T03:33:01.458Z,2.47
2022-08-09T03:36:11.220Z,2.30
2022-08-09T03:38:28.870Z,2.85
2022-08-09T03:40:57.944Z,2.53
2022-08-09T03:43:31.577Z,2.38
2022-08-09T03:46:04.790Z,2.40
2022-08-09T03:48:52.158Z,1.90
2022-08-09T03:51:44.025Z,2.38
2022-08-09T03:54:11.128Z,2.30
2022-08-09T03:56:41.109Z,2.40
2022-08-09T03:59:13.539Z,2.47
2022-08-09T04:01:45.836Z,2.63
2022-08-09T04:04:16.147Z,3.00
2022-08-09T04:06:48.697Z,2.13
2022-08-09T04:09:42.039Z,2.40
2022-08-09T04:12:30.693Z,2.50
2022-08-09T04:15:01.403Z,2.10
2022-08-09T04:17:29.971Z,2.15
2022-08-09T04:20:02.629Z,2.22
2022-08-09T04:22:32.094Z,2.17
2022-08-09T04:25:00.166Z,2.30
2022-08-09T04:27:29.311Z,2.25
2022-08-09T04:29:57.226Z,2.08
2022-08-09T04:32:33.734Z,2.67
2022-08-09T04:35:08.715Z,2.22
2022-08-09T04:37:45.407Z,2.53
2022-08-09T04:40:19.639Z,1.80
2022-08-09T04:45:24.906Z,1.95
2022-08-09T04:48:03.091Z,2.30
2022-08-09T04:50:34.973Z,2.15
2022-08-09T04:53:13.082Z,1.67
2022-08-09T04:55:58.938Z,1.85
2022-08-09T04:58:28.006Z,2.40
2022-08-09T05:00:56.789Z,2.00
2022-08-09T05:03:40.057Z,2.00
2022-08-09T05:06:25.839Z,2.28
2022-08-09T05:08:59.817Z,2.03
2022-08-09T05:11:32.192Z,2.28
2022-08-09T05:14:05.911Z,1.70
2022-08-09T05:16:34.467Z,1.88
2022-08-09T05:19:31.717Z,1.92
2022-08-09T05:25:01.013Z,2.05
2022-08-09T05:27:34.734Z,2.65
2022-08-09T05:30:23.820Z,2.40
2022-08-09T05:33:00.594Z,1.88
2022-08-09T05:35:33.784Z,1.90
2022-08-09T05:38:21.812Z,2.03
2022-08-09T05:40:57.983Z,2.25
2022-08-09T05:43:31.843Z,1.90
2022-08-09T05:46:07.189Z,1.80
2022-08-09T05:48:39.567Z,1.77
2022-08-09T05:51:41.563Z,1.98
2022-08-09T05:54:09.035Z,1.77
2022-08-09T05:56:54.950Z,1.90
2022-08-09T05:59:30.002Z,1.88
2022-08-09T06:02:03.986Z,1.90
2022-08-09T06:07:26.651Z,2.30
2022-08-09T06:15:24.779Z,2.15
2022-08-09T06:17:59.405Z,2.17
2022-08-09T06:20:29.372Z,2.45
2022-08-09T06:23:15.831Z,2.40
2022-08-09T06:25:44.996Z,2.22
2022-08-09T06:31:30.765Z,2.15
2022-08-09T06:42:14.801Z,2.08
2022-08-09T06:56:58.162Z,1.30
2022-08-09T07:08:11.137Z,1.27
2022-08-09T08:48:19.374Z,1.10
2022-08-09T08:54:29.761Z,1.30
2022-08-09T08:57:01.680Z,1.05
2022-08-09T08:59:46.685Z,1.40
2022-08-09T09:06:04.884Z,1.45
2022-08-09T09:08:40.885Z,1.00
2022-08-09T09:11:17.854Z,1.13
2022-08-09T09:13:56.234Z,0.98
2022-08-09T09:16:30.677Z,1.13
2022-08-09T09:19:22.579Z,1.05
2022-08-09T09:22:03.672Z,1.42
2022-08-09T09:24:37.261Z,1.15
2022-08-09T09:27:07.304Z,1.23
2022-08-09T09:30:09.316Z,1.23
2022-08-09T09:32:34.450Z,0.90
2022-08-09T09:35:09.099Z,1.05
2022-08-09T09:37:40.218Z,1.38
2022-08-09T09:40:12.497Z,1.38
2022-08-09T09:42:43.026Z,1.20
2022-08-09T09:45:25.758Z,1.27
2022-08-09T09:50:49.376Z,1.30
2022-08-09T09:53:21.169Z,0.90
2022-08-09T09:56:04.563Z,1.50
2022-08-09T09:58:46.557Z,1.00
2022-08-09T10:01:36.879Z,0.80
2022-08-09T10:04:09.539Z,1.00
2022-08-09T10:06:42.534Z,1.20
2022-08-09T10:09:22.321Z,1.08
2022-08-09T10:12:11.859Z,1.23
2022-08-09T10:14:47.965Z,1.08
2022-08-09T10:17:51.417Z,0.95
2022-08-09T10:20:31.804Z,0.98
2022-08-09T10:23:17.475Z,0.80
2022-08-09T10:26:06.585Z,1.00
2022-08-09T10:28:39.960Z,1.35
2022-08-09T10:34:11.216Z,1.10
2022-08-09T10:36:45.420Z,0.77
2022-08-09T10:39:15.457Z,1.35
2022-08-09T10:41:47.745Z,0.90
2022-08-09T10:44:19.293Z,1.13
2022-08-09T10:47:28.201Z,0.95
2022-08-09T10:50:07.084Z,0.93
2022-08-09T10:52:51.875Z,0.90
2022-08-09T10:55:24.240Z,1.05
2022-08-09T10:57:55.520Z,1.02
2022-08-09T11:01:10.719Z,0.95
2022-08-09T11:03:49.850Z,1.52
2022-08-09T11:06:25.178Z,0.95
2022-08-09T11:08:54.148Z,0.90
2022-08-09T11:11:23.946Z,0.80
2022-08-09T11:14:28.257Z,0.85
2022-08-09T11:16:57.928Z,0.70
2022-08-09T16:53:11.790Z,0.70
2022-08-09T17:08:46.510Z,0.90
2022-08-09T17:14:25.701Z,0.90
2022-08-09T17:16:56.056Z,0.50
2022-08-09T17:19:23.604Z,0.60
2022-08-09T17:21:54.448Z,0.73
2022-08-09T17:26:58.581Z,0.68
2022-08-09T17:29:31.588Z,1.10
2022-08-09T17:32:05.961Z,0.98
2022-08-09T17:35:04.074Z,0.90
2022-08-09T17:37:21.385Z,1.20
2022-08-09T17:39:53.586Z,0.98
2022-08-09T17:42:41.181Z,0.63
2022-08-09T17:45:16.206Z,0.93
2022-08-09T17:48:02.673Z,0.80
2022-08-09T17:50:36.995Z,0.82
2022-08-09T17:53:19.193Z,1.08
2022-08-09T17:58:19.113Z,1.08
2022-08-09T18:00:48.508Z,0.77
2022-08-09T18:03:17.984Z,0.70
2022-08-09T18:05:53.005Z,0.88
2022-08-09T18:08:22.013Z,0.65
2022-08-09T18:11:02.210Z,0.85
2022-08-09T18:13:40.886Z,0.90
2022-08-09T18:16:30.254Z,1.35
2022-08-09T18:19:04.258Z,0.90
2022-08-09T18:21:47.131Z,0.57
2022-08-09T18:24:18.028Z,0.87
2022-08-09T18:26:46.822Z,0.75
2022-08-09T18:30:42.269Z,0.75
2022-08-09T18:32:07.328Z,0.95
2022-08-09T18:34:36.407Z,1.05
2022-08-09T18:37:04.587Z,0.60
2022-08-09T18:39:39.555Z,0.82
2022-08-09T18:42:09.589Z,0.90
2022-08-09T18:44:39.555Z,1.10
2022-08-09T18:47:15.784Z,1.10
2022-08-09T18:49:46.567Z,0.80
2022-08-09T18:52:16.054Z,1.55
2022-08-09T18:54:53.441Z,1.08
2022-08-09T18:57:22.919Z,0.90
2022-08-09T18:59:56.339Z,1.05
2022-08-09T19:02:31.706Z,1.10
2022-08-09T19:05:14.802Z,0.73
2022-08-09T19:08:04.938Z,1.00
2022-08-09T19:10:38.900Z,0.93
2022-08-09T19:13:20.806Z,0.80
2022-08-09T19:15:58.680Z,0.68
2022-08-09T19:18:34.064Z,1.20
2022-08-09T19:21:09.757Z,1.20
2022-08-09T19:24:39.577Z,0.93
2022-08-09T19:26:31.522Z,0.88
2022-08-09T19:29:01.773Z,0.80
2022-08-09T19:31:43.959Z,1.08
2022-08-09T19:34:21.922Z,0.68
2022-08-09T19:36:51.241Z,1.00
2022-08-09T19:39:20.844Z,1.45
2022-08-09T19:42:08.100Z,1.50
2022-08-09T19:44:36.818Z,1.75
2022-08-09T19:47:04.975Z,1.48
2022-08-09T19:50:07.069Z,1.30
2022-08-09T19:52:26.847Z,1.05
2022-08-09T19:54:55.346Z,1.20
2022-08-09T19:57:25.783Z,1.00
2022-08-09T20:00:05.519Z,0.80
2022-08-09T20:06:33.729Z,1.10
2022-08-09T20:09:43.695Z,1.25
2022-08-09T23:43:09.248Z,1.20
2022-08-09T23:45:38.465Z,1.27
2022-08-09T23:48:08.909Z,1.20
2022-08-09T23:50:37.130Z,1.48
2022-08-09T23:53:05.437Z,1.15
2022-08-09T23:55:33.282Z,1.10
2022-08-09T23:58:10.521Z,1.02
